createdAt,value
2018-06-02T00:00:38.736Z,0
2018-06-02T00:01:47.649Z,0
2018-06-02T00:02:56.303Z,0
2018-06-02T00:04:04.947Z,0
2018-06-02T00:05:13.593Z,0
2018-06-02T00:06:22.240Z,0
2018-06-02T00:07:30.897Z,0
2018-06-02T00:08:39.536Z,0
2018-06-02T00:09:48.446Z,0
2018-06-02T00:10:57.093Z,0
2018-06-02T00:12:05.751Z,0
2018-06-02T00:13:14.394Z,0
2018-06-02T00:14:23.045Z,0
2018-06-02T00:15:31.687Z,0
2018-06-02T00:16:40.340Z,0
2018-06-02T00:17:48.984Z,0
2018-06-02T00:18:57.637Z,0
2018-06-02T00:20:06.279Z,0
2018-06-02T00:21:14.925Z,0
2018-06-02T00:22:23.576Z,0
2018-06-02T00:23:32.224Z,0
2018-06-02T00:24:40.871Z,0
2018-06-02T00:25:49.529Z,0
2018-06-02T00:26:58.171Z,0
2018-06-02T00:28:06.820Z,0
2018-06-02T00:29:15.470Z,0
2018-06-02T00:30:24.118Z,0
2018-06-02T00:31:32.761Z,0
2018-06-02T00:32:41.409Z,0
2018-06-02T00:33:50.320Z,0
2018-06-02T00:34:58.976Z,0
2018-06-02T00:36:07.626Z,0
2018-06-02T00:37:16.268Z,0
2018-06-02T00:38:24.916Z,0
2018-06-02T00:39:33.559Z,0
2018-06-02T00:40:42.218Z,0
2018-06-02T00:41:51.126Z,0
2018-06-02T00:42:59.773Z,0
2018-06-02T00:44:08.420Z,0
2018-06-02T00:45:17.071Z,0
2018-06-02T00:46:25.722Z,0
2018-06-02T00:47:34.368Z,0
2018-06-02T00:48:43.011Z,0
2018-06-02T00:49:51.662Z,0
2018-06-02T00:51:00.304Z,0
2018-06-02T00:52:08.952Z,0
2018-06-02T00:53:17.595Z,0
2018-06-02T00:54:26.244Z,0
2018-06-02T00:55:34.894Z,0
2018-06-02T00:56:43.805Z,0
2018-06-02T00:57:52.457Z,0
2018-06-02T00:59:01.100Z,0
2018-06-02T01:00:09.747Z,0
2018-06-02T01:01:18.393Z,0
2018-06-02T01:02:27.307Z,0
2018-06-02T01:03:35.955Z,0
2018-06-02T01:04:44.600Z,0
2018-06-02T01:05:53.245Z,0
2018-06-02T01:07:01.897Z,0
2018-06-02T01:08:10.536Z,0
2018-06-02T01:09:19.446Z,0
2018-06-02T01:10:28.090Z,0
2018-06-02T01:11:36.741Z,0
2018-06-02T01:12:45.385Z,0
2018-06-02T01:13:54.295Z,0
2018-06-02T01:15:02.941Z,0
2018-06-02T01:16:11.585Z,0
2018-06-02T01:17:20.509Z,0
2018-06-02T01:18:29.153Z,0
2018-06-02T01:19:37.804Z,0
2018-06-02T01:20:46.450Z,0
2018-06-02T01:21:55.096Z,0
2018-06-02T01:23:03.742Z,0
2018-06-02T01:24:12.393Z,0
2018-06-02T01:25:21.029Z,0
2018-06-02T01:26:29.951Z,0
2018-06-02T01:27:38.599Z,0
2018-06-02T01:28:47.249Z,0
2018-06-02T01:29:55.886Z,0
2018-06-02T01:31:04.535Z,0
2018-06-02T01:32:13.187Z,0
2018-06-02T01:33:21.836Z,0
2018-06-02T01:34:30.484Z,0
2018-06-02T01:35:39.122Z,0
2018-06-02T01:36:47.779Z,0
2018-06-02T01:37:56.689Z,0
2018-06-02T01:39:05.342Z,0
2018-06-02T01:40:13.988Z,0
2018-06-02T01:41:22.631Z,0
2018-06-02T01:42:31.273Z,0
2018-06-02T01:43:39.928Z,0
2018-06-02T01:44:48.564Z,0
2018-06-02T01:45:57.213Z,0
2018-06-02T01:47:05.857Z,0
2018-06-02T01:48:14.795Z,0
2018-06-02T01:49:23.436Z,0
2018-06-02T01:50:32.080Z,0
2018-06-02T01:51:40.725Z,0
2018-06-02T01:52:49.632Z,0
2018-06-02T01:53:58.288Z,0
2018-06-02T01:55:06.930Z,0
2018-06-02T01:56:15.584Z,0
2018-06-02T01:57:24.220Z,0
2018-06-02T01:58:32.873Z,0
2018-06-02T01:59:41.777Z,0
2018-06-02T02:00:50.429Z,0
2018-06-02T02:01:59.065Z,0
2018-06-02T02:03:07.720Z,0
2018-06-02T02:04:16.366Z,0
2018-06-02T02:05:25.018Z,0
2018-06-02T02:06:33.651Z,0
2018-06-02T02:07:42.300Z,0
2018-06-02T02:08:50.951Z,0
2018-06-02T02:09:59.604Z,0
2018-06-02T02:11:08.247Z,0
2018-06-02T02:12:16.885Z,0
2018-06-02T02:13:25.539Z,0
2018-06-02T02:14:34.187Z,0
2018-06-02T02:15:42.850Z,0
2018-06-02T02:16:51.756Z,0
2018-06-02T02:18:00.405Z,0
2018-06-02T02:19:09.053Z,0
2018-06-02T02:20:17.965Z,0
2018-06-02T02:21:26.606Z,0
2018-06-02T02:22:35.256Z,0
2018-06-02T02:23:44.172Z,0
2018-06-02T02:24:52.823Z,0
2018-06-02T02:26:01.469Z,0
2018-06-02T02:27:10.115Z,0
2018-06-02T02:28:18.761Z,0
2018-06-02T02:29:27.406Z,0
2018-06-02T02:30:36.061Z,0
2018-06-02T02:31:44.713Z,0
2018-06-02T02:32:53.629Z,0
2018-06-02T02:34:02.272Z,0
2018-06-02T02:35:10.937Z,0
2018-06-02T02:36:19.591Z,0
2018-06-02T02:37:28.240Z,0
2018-06-02T02:38:36.885Z,0
2018-06-02T02:39:45.540Z,0
2018-06-02T02:40:54.187Z,0
2018-06-02T02:42:02.843Z,0
2018-06-02T02:43:11.487Z,0
2018-06-02T02:44:20.141Z,0
2018-06-02T02:45:28.795Z,0
2018-06-02T02:46:37.444Z,0
2018-06-02T02:47:46.641Z,0
2018-06-02T02:48:55.285Z,0
2018-06-02T02:50:03.943Z,0
2018-06-02T02:51:12.604Z,0
2018-06-02T02:52:21.256Z,0
2018-06-02T02:53:29.899Z,0
2018-06-02T02:54:38.549Z,0
2018-06-02T02:55:47.478Z,0
2018-06-02T02:56:56.117Z,0
2018-06-02T02:58:05.022Z,0
2018-06-02T02:59:13.673Z,0
2018-06-02T03:00:22.583Z,0
2018-06-02T03:01:31.579Z,0
2018-06-02T03:02:40.631Z,0
2018-06-02T03:03:49.782Z,0
2018-06-02T03:04:58.823Z,0
2018-06-02T03:06:07.807Z,0
2018-06-02T03:07:16.784Z,0
2018-06-02T03:08:26.154Z,0
2018-06-02T03:09:35.045Z,0
2018-06-02T03:10:43.686Z,0
2018-06-02T03:11:52.434Z,0
2018-06-02T03:13:01.130Z,0
2018-06-02T03:14:10.249Z,0
2018-06-02T03:15:19.090Z,0
2018-06-02T03:16:27.989Z,0
2018-06-02T03:17:37.143Z,0
2018-06-02T03:18:45.840Z,0
2018-06-02T03:19:54.527Z,0
2018-06-02T03:21:03.128Z,0
2018-06-02T03:22:11.778Z,0
2018-06-02T03:23:20.426Z,0
2018-06-02T03:24:29.078Z,0
2018-06-02T03:25:37.713Z,0
2018-06-02T03:26:46.365Z,0
2018-06-02T03:27:55.011Z,0
2018-06-02T03:29:03.664Z,0
2018-06-02T03:30:12.307Z,0
2018-06-02T03:31:21.228Z,0
2018-06-02T03:32:30.143Z,0
2018-06-02T03:33:39.066Z,5
2018-06-02T03:34:47.701Z,5
2018-06-02T03:35:56.352Z,5
2018-06-02T03:37:04.996Z,5
2018-06-02T03:38:13.657Z,5
2018-06-02T03:39:22.568Z,5
2018-06-02T03:40:31.210Z,5
2018-06-02T03:41:39.855Z,5
2018-06-02T03:42:48.502Z,5
2018-06-02T03:43:57.156Z,5
2018-06-02T03:45:05.798Z,5
2018-06-02T03:46:14.456Z,5
2018-06-02T03:47:23.358Z,5
2018-06-02T03:48:32.016Z,5
2018-06-02T03:49:40.656Z,5
2018-06-02T03:50:49.312Z,5
2018-06-02T03:51:57.951Z,5
2018-06-02T03:53:06.875Z,5
2018-06-02T03:54:15.524Z,5
2018-06-02T03:55:24.182Z,5
2018-06-02T03:56:32.828Z,5
2018-06-02T03:57:41.741Z,5
2018-06-02T03:58:50.392Z,5
2018-06-02T03:59:59.038Z,10
2018-06-02T04:01:07.685Z,10
2018-06-02T04:02:16.324Z,10
2018-06-02T04:03:24.974Z,10
2018-06-02T04:04:33.885Z,10
2018-06-02T04:05:42.540Z,10
2018-06-02T04:06:51.178Z,15
2018-06-02T04:07:59.825Z,15
2018-06-02T04:09:08.471Z,15
2018-06-02T04:10:17.122Z,15
2018-06-02T04:11:25.760Z,15
2018-06-02T04:12:34.409Z,15
2018-06-02T04:13:43.056Z,15
2018-06-02T04:14:51.712Z,15
2018-06-02T04:16:00.667Z,15
2018-06-02T04:17:09.311Z,15
2018-06-02T04:18:17.961Z,15
2018-06-02T04:19:26.881Z,20
2018-06-02T04:20:35.516Z,20
2018-06-02T04:21:44.166Z,20
2018-06-02T04:22:52.809Z,20
2018-06-02T04:24:01.472Z,20
2018-06-02T04:25:10.375Z,20
2018-06-02T04:26:19.029Z,20
2018-06-02T04:27:27.666Z,20
2018-06-02T04:28:36.317Z,20
2018-06-02T04:29:44.955Z,15
2018-06-02T04:30:53.876Z,15
2018-06-02T04:32:02.517Z,15
2018-06-02T04:33:11.174Z,15
2018-06-02T04:34:19.819Z,15
2018-06-02T04:35:28.463Z,15
2018-06-02T04:36:37.109Z,15
2018-06-02T04:37:45.754Z,15
2018-06-02T04:38:54.943Z,15
2018-06-02T04:40:03.852Z,15
2018-06-02T04:41:12.504Z,15
2018-06-02T04:42:21.146Z,15
2018-06-02T04:43:29.800Z,15
2018-06-02T04:44:38.707Z,20
2018-06-02T04:45:47.358Z,20
2018-06-02T04:46:56.001Z,20
2018-06-02T04:48:04.653Z,20
2018-06-02T04:49:13.301Z,20
2018-06-02T04:50:21.949Z,20
2018-06-02T04:51:30.588Z,20
2018-06-02T04:52:39.235Z,20
2018-06-02T04:53:47.886Z,20
2018-06-02T04:54:56.797Z,20
2018-06-02T04:56:05.449Z,20
2018-06-02T04:57:14.085Z,25
2018-06-02T04:58:22.736Z,25
2018-06-02T04:59:31.380Z,25
2018-06-02T05:00:40.303Z,25
2018-06-02T05:01:48.942Z,30
2018-06-02T05:02:57.594Z,30
2018-06-02T05:04:06.235Z,25
2018-06-02T05:05:14.897Z,30
2018-06-02T05:06:23.793Z,30
2018-06-02T05:07:32.708Z,30
2018-06-02T05:08:41.352Z,30
2018-06-02T05:09:50.010Z,30
2018-06-02T05:10:58.658Z,30
2018-06-02T05:12:07.300Z,25
2018-06-02T05:13:15.943Z,25
2018-06-02T05:14:24.588Z,25
2018-06-02T05:15:33.244Z,25
2018-06-02T05:16:41.895Z,25
2018-06-02T05:17:50.804Z,25
2018-06-02T05:18:59.448Z,20
2018-06-02T05:20:08.101Z,25
2018-06-02T05:21:16.748Z,25
2018-06-02T05:22:25.395Z,25
2018-06-02T05:23:34.564Z,25
2018-06-02T05:24:43.476Z,25
2018-06-02T05:25:52.126Z,25
2018-06-02T05:27:00.776Z,25
2018-06-02T05:28:09.423Z,25
2018-06-02T05:29:18.068Z,25
2018-06-02T05:30:26.715Z,25
2018-06-02T05:31:35.361Z,25
2018-06-02T05:32:44.011Z,25
2018-06-02T05:33:52.655Z,25
2018-06-02T05:35:01.570Z,25
2018-06-02T05:36:10.481Z,25
2018-06-02T05:37:19.133Z,25
2018-06-02T05:38:27.773Z,25
2018-06-02T05:39:36.420Z,25
2018-06-02T05:40:45.066Z,25
2018-06-02T05:41:53.719Z,25
2018-06-02T05:43:02.360Z,25
2018-06-02T05:44:11.007Z,30
2018-06-02T05:45:19.663Z,30
2018-06-02T05:46:28.303Z,30
2018-06-02T05:47:36.947Z,30
2018-06-02T05:48:45.593Z,35
2018-06-02T05:49:54.243Z,35
2018-06-02T05:51:02.883Z,40
2018-06-02T05:52:11.534Z,40
2018-06-02T05:53:20.182Z,35
2018-06-02T05:54:28.828Z,35
2018-06-02T05:55:37.469Z,35
2018-06-02T05:56:46.121Z,35
2018-06-02T05:57:54.767Z,35
2018-06-02T05:59:03.419Z,35
2018-06-02T06:00:12.063Z,35
2018-06-02T06:01:20.716Z,40
2018-06-02T06:02:29.362Z,35
2018-06-02T06:03:38.015Z,40
2018-06-02T06:04:46.655Z,40
2018-06-02T06:05:55.305Z,35
2018-06-02T06:07:03.951Z,35
2018-06-02T06:08:12.599Z,35
2018-06-02T06:09:21.246Z,30
2018-06-02T06:10:29.891Z,30
2018-06-02T06:11:38.540Z,30
2018-06-02T06:12:47.189Z,30
2018-06-02T06:13:55.833Z,30
2018-06-02T06:15:04.477Z,30
2018-06-02T06:16:13.663Z,30
2018-06-02T06:17:22.311Z,25
2018-06-02T06:18:30.962Z,30
2018-06-02T06:19:39.631Z,25
2018-06-02T06:20:48.252Z,25
2018-06-02T06:21:56.898Z,25
2018-06-02T06:23:05.548Z,25
2018-06-02T06:24:14.457Z,25
2018-06-02T06:25:23.102Z,25
2018-06-02T06:26:31.747Z,25
2018-06-02T06:27:40.655Z,30
2018-06-02T06:28:49.573Z,30
2018-06-02T06:29:58.215Z,30
2018-06-02T06:31:06.862Z,30
2018-06-02T06:32:15.503Z,25
2018-06-02T06:33:24.155Z,25
2018-06-02T06:34:32.801Z,25
2018-06-02T06:35:41.447Z,35
2018-06-02T06:36:50.091Z,35
2018-06-02T06:37:58.999Z,35
2018-06-02T06:39:07.703Z,40
2018-06-02T06:40:16.294Z,45
2018-06-02T06:41:24.939Z,40
2018-06-02T06:42:33.848Z,35
2018-06-02T06:43:42.495Z,35
2018-06-02T06:44:51.144Z,30
2018-06-02T06:45:59.799Z,35
2018-06-02T06:47:08.440Z,40
2018-06-02T06:48:17.090Z,35
2018-06-02T06:49:25.737Z,35
2018-06-02T06:50:34.440Z,40
2018-06-02T06:51:43.034Z,40
2018-06-02T06:52:51.683Z,40
2018-06-02T06:54:00.329Z,45
2018-06-02T06:55:08.982Z,45
2018-06-02T06:56:17.625Z,45
2018-06-02T06:57:26.275Z,50
2018-06-02T06:58:35.180Z,50
2018-06-02T06:59:44.364Z,50
2018-06-02T07:00:53.010Z,45
2018-06-02T07:02:01.656Z,45
2018-06-02T07:03:10.299Z,45
2018-06-02T07:04:18.947Z,45
2018-06-02T07:05:27.596Z,40
2018-06-02T07:06:36.245Z,40
2018-06-02T07:07:45.153Z,45
2018-06-02T07:08:54.147Z,45
2018-06-02T07:10:02.744Z,50
2018-06-02T07:11:11.389Z,50
2018-06-02T07:12:20.037Z,55
2018-06-02T07:13:28.682Z,55
2018-06-02T07:14:37.602Z,55
2018-06-02T07:15:46.363Z,55
2018-06-02T07:16:54.897Z,55
2018-06-02T07:18:03.534Z,50
2018-06-02T07:19:12.180Z,65
2018-06-02T07:20:21.101Z,70
2018-06-02T07:21:29.754Z,70
2018-06-02T07:22:38.667Z,75
2018-06-02T07:23:47.306Z,65
2018-06-02T07:24:56.407Z,60
2018-06-02T07:26:05.410Z,65
2018-06-02T07:27:14.065Z,60
2018-06-02T07:28:22.703Z,55
2018-06-02T07:29:31.355Z,50
2018-06-02T07:30:39.998Z,60
2018-06-02T07:31:48.655Z,65
2018-06-02T07:32:57.298Z,60
2018-06-02T07:34:05.947Z,65
2018-06-02T07:35:14.592Z,75
2018-06-02T07:36:23.256Z,75
2018-06-02T07:37:31.894Z,70
2018-06-02T07:38:40.537Z,60
2018-06-02T07:39:49.180Z,55
2018-06-02T07:40:57.828Z,55
2018-06-02T07:42:06.747Z,60
2018-06-02T07:43:15.392Z,55
2018-06-02T07:44:24.070Z,60
2018-06-02T07:45:32.942Z,70
2018-06-02T07:46:41.616Z,75
2018-06-02T07:47:50.526Z,65
2018-06-02T07:48:59.174Z,60
2018-06-02T07:50:08.196Z,70
2018-06-02T07:51:17.174Z,95
2018-06-02T07:52:25.819Z,105
2018-06-02T07:53:34.469Z,120
2018-06-02T07:54:43.634Z,120
2018-06-02T07:55:52.284Z,110
2018-06-02T07:57:00.936Z,120
2018-06-02T07:58:09.589Z,130
2018-06-02T07:59:18.241Z,120
2018-06-02T08:00:27.141Z,110
2018-06-02T08:01:35.799Z,100
2018-06-02T08:02:44.442Z,80
2018-06-02T08:03:53.097Z,85
2018-06-02T08:05:01.998Z,80
2018-06-02T08:06:10.921Z,85
2018-06-02T08:07:19.830Z,100
2018-06-02T08:08:28.541Z,85
2018-06-02T08:09:37.124Z,85
2018-06-02T08:10:45.773Z,95
2018-06-02T08:11:54.425Z,95
2018-06-02T08:13:03.330Z,95
2018-06-02T08:14:11.981Z,100
2018-06-02T08:15:20.908Z,110
2018-06-02T08:16:29.559Z,100
2018-06-02T08:17:38.475Z,90
2018-06-02T08:18:47.114Z,95
2018-06-02T08:19:55.768Z,95
2018-06-02T08:21:04.411Z,85
2018-06-02T08:22:13.067Z,95
2018-06-02T08:23:21.708Z,95
2018-06-02T08:24:30.360Z,95
2018-06-02T08:25:39.004Z,90
2018-06-02T08:26:47.661Z,90
2018-06-02T08:27:56.320Z,90
2018-06-02T08:29:04.970Z,85
2018-06-02T08:30:13.882Z,95
2018-06-02T08:31:22.544Z,100
2018-06-02T08:32:31.189Z,100
2018-06-02T08:33:40.246Z,95
2018-06-02T08:34:48.845Z,95
2018-06-02T08:35:57.489Z,95
2018-06-02T08:37:06.148Z,100
2018-06-02T08:38:14.795Z,105
2018-06-02T08:39:23.439Z,115
2018-06-02T08:40:32.079Z,120
2018-06-02T08:41:40.733Z,135
2018-06-02T08:42:49.376Z,130
2018-06-02T08:43:58.028Z,135
2018-06-02T08:45:06.936Z,120
2018-06-02T08:46:15.590Z,115
2018-06-02T08:47:24.505Z,130
2018-06-02T08:48:33.155Z,140
2018-06-02T08:49:41.796Z,150
2018-06-02T08:50:50.446Z,145
2018-06-02T08:51:59.102Z,140
2018-06-02T08:53:07.753Z,135
2018-06-02T08:54:16.407Z,140
2018-06-02T08:55:25.310Z,165
2018-06-02T08:56:33.967Z,165
2018-06-02T08:57:42.610Z,155
2018-06-02T08:58:51.268Z,145
2018-06-02T08:59:59.906Z,115
2018-06-02T09:01:08.559Z,110
2018-06-02T09:02:17.201Z,120
2018-06-02T09:03:25.861Z,115
2018-06-02T09:04:34.500Z,100
2018-06-02T09:05:43.149Z,100
2018-06-02T09:06:51.794Z,115
2018-06-02T09:08:00.453Z,120
2018-06-02T09:09:09.099Z,120
2018-06-02T09:10:18.006Z,140
2018-06-02T09:11:26.655Z,135
2018-06-02T09:12:35.568Z,130
2018-06-02T09:13:44.222Z,125
2018-06-02T09:14:53.138Z,125
2018-06-02T09:16:02.380Z,135
2018-06-02T09:17:11.027Z,125
2018-06-02T09:18:19.677Z,95
2018-06-02T09:19:28.326Z,80
2018-06-02T09:20:36.975Z,75
2018-06-02T09:21:45.621Z,75
2018-06-02T09:22:54.272Z,90
2018-06-02T09:24:02.919Z,125
2018-06-02T09:25:11.827Z,125
2018-06-02T09:26:20.476Z,130
2018-06-02T09:27:29.124Z,155
2018-06-02T09:28:37.774Z,170
2018-06-02T09:29:46.424Z,185
2018-06-02T09:30:55.073Z,250
2018-06-02T09:32:03.716Z,280
2018-06-02T09:33:12.364Z,285
2018-06-02T09:34:21.329Z,280
2018-06-02T09:35:29.931Z,270
2018-06-02T09:36:38.841Z,250
2018-06-02T09:37:47.510Z,250
2018-06-02T09:38:56.136Z,235
2018-06-02T09:40:04.797Z,240
2018-06-02T09:41:13.708Z,260
2018-06-02T09:42:22.371Z,260
2018-06-02T09:43:31.273Z,255
2018-06-02T09:44:39.930Z,285
2018-06-02T09:45:48.576Z,295
2018-06-02T09:46:57.498Z,295
2018-06-02T09:48:06.415Z,320
2018-06-02T09:49:15.064Z,310
2018-06-02T09:50:23.983Z,280
2018-06-02T09:51:32.631Z,220
2018-06-02T09:52:41.286Z,190
2018-06-02T09:53:49.931Z,170
2018-06-02T09:54:58.584Z,155
2018-06-02T09:56:07.235Z,155
2018-06-02T09:57:15.885Z,175
2018-06-02T09:58:24.527Z,165
2018-06-02T09:59:33.455Z,165
2018-06-02T10:00:42.103Z,190
2018-06-02T10:01:50.757Z,205
2018-06-02T10:02:59.665Z,215
2018-06-02T10:04:08.320Z,225
2018-06-02T10:05:16.972Z,195
2018-06-02T10:06:25.623Z,165
2018-06-02T10:07:34.275Z,140
2018-06-02T10:08:42.918Z,150
2018-06-02T10:09:51.570Z,155
2018-06-02T10:11:00.216Z,155
2018-06-02T10:12:08.875Z,160
2018-06-02T10:13:17.784Z,145
2018-06-02T10:14:26.704Z,125
2018-06-02T10:15:35.353Z,110
2018-06-02T10:16:44.012Z,115
2018-06-02T10:17:52.651Z,125
2018-06-02T10:19:01.570Z,155
2018-06-02T10:20:10.219Z,200
2018-06-02T10:21:18.877Z,225
2018-06-02T10:22:27.533Z,245
2018-06-02T10:23:36.443Z,255
2018-06-02T10:24:45.094Z,260
2018-06-02T10:25:53.741Z,260
2018-06-02T10:27:02.396Z,265
2018-06-02T10:28:11.041Z,275
2018-06-02T10:29:19.695Z,275
2018-06-02T10:30:28.336Z,280
2018-06-02T10:31:36.995Z,295
2018-06-02T10:32:45.640Z,310
2018-06-02T10:33:54.292Z,330
2018-06-02T10:35:03.196Z,340
2018-06-02T10:36:12.397Z,350
2018-06-02T10:37:21.048Z,365
2018-06-02T10:38:29.695Z,385
2018-06-02T10:39:38.345Z,400
2018-06-02T10:40:46.988Z,420
2018-06-02T10:41:55.643Z,440
2018-06-02T10:43:04.296Z,445
2018-06-02T10:44:12.949Z,445
2018-06-02T10:45:21.593Z,425
2018-06-02T10:46:30.510Z,400
2018-06-02T10:47:39.157Z,395
2018-06-02T10:48:47.819Z,405
2018-06-02T10:49:56.726Z,390
2018-06-02T10:51:05.377Z,385
2018-06-02T10:52:14.023Z,375
2018-06-02T10:53:22.955Z,350
2018-06-02T10:54:31.859Z,345
2018-06-02T10:55:40.511Z,355
2018-06-02T10:56:49.165Z,345
2018-06-02T10:57:57.829Z,340
2018-06-02T10:59:06.478Z,330
2018-06-02T11:00:15.126Z,315
2018-06-02T11:01:24.039Z,350
2018-06-02T11:02:32.690Z,395
2018-06-02T11:03:41.359Z,385
2018-06-02T11:04:50.268Z,355
2018-06-02T11:05:58.923Z,330
2018-06-02T11:07:07.566Z,265
2018-06-02T11:08:16.225Z,220
2018-06-02T11:09:24.875Z,210
2018-06-02T11:10:33.798Z,210
2018-06-02T11:11:42.444Z,235
2018-06-02T11:12:51.103Z,245
2018-06-02T11:13:59.753Z,260
2018-06-02T11:15:08.407Z,310
2018-06-02T11:16:17.055Z,350
2018-06-02T11:17:25.707Z,370
2018-06-02T11:18:34.358Z,390
2018-06-02T11:19:43.014Z,415
2018-06-02T11:20:51.928Z,430
2018-06-02T11:22:00.575Z,440
2018-06-02T11:23:09.226Z,445
2018-06-02T11:24:18.143Z,445
2018-06-02T11:25:26.794Z,470
2018-06-02T11:26:35.442Z,460
2018-06-02T11:27:44.093Z,445
2018-06-02T11:28:52.744Z,430
2018-06-02T11:30:01.401Z,425
2018-06-02T11:31:10.313Z,415
2018-06-02T11:32:18.966Z,435
2018-06-02T11:33:27.624Z,400
2018-06-02T11:34:36.549Z,400
2018-06-02T11:35:45.210Z,455
2018-06-02T11:36:53.857Z,460
2018-06-02T11:38:02.516Z,450
2018-06-02T11:39:11.156Z,455
2018-06-02T11:40:19.812Z,455
2018-06-02T11:41:28.464Z,435
2018-06-02T11:42:37.121Z,380
2018-06-02T11:43:46.039Z,325
2018-06-02T11:44:54.703Z,345
2018-06-02T11:46:03.355Z,375
2018-06-02T11:47:12.006Z,365
2018-06-02T11:48:20.656Z,360
2018-06-02T11:49:29.577Z,365
2018-06-02T11:50:38.228Z,370
2018-06-02T11:51:46.879Z,380
2018-06-02T11:52:55.795Z,395
2018-06-02T11:54:04.454Z,410
2018-06-02T11:55:13.369Z,420
2018-06-02T11:56:22.023Z,430
2018-06-02T11:57:30.945Z,440
2018-06-02T11:58:39.594Z,460
2018-06-02T11:59:48.319Z,470
2018-06-02T12:00:56.926Z,470
2018-06-02T12:02:06.381Z,470
2018-06-02T12:03:15.027Z,465
2018-06-02T12:04:23.677Z,460
2018-06-02T12:05:32.333Z,460
2018-06-02T12:06:40.983Z,465
2018-06-02T12:07:49.644Z,445
2018-06-02T12:08:58.296Z,420
2018-06-02T12:10:06.954Z,400
2018-06-02T12:11:15.600Z,380
2018-06-02T12:12:24.517Z,350
2018-06-02T12:13:33.436Z,325
2018-06-02T12:14:42.088Z,310
2018-06-02T12:15:50.750Z,295
2018-06-02T12:16:59.394Z,300
2018-06-02T12:18:08.049Z,320
2018-06-02T12:19:16.962Z,335
2018-06-02T12:20:25.895Z,350
2018-06-02T12:21:34.543Z,370
2018-06-02T12:22:43.196Z,395
2018-06-02T12:23:51.852Z,395
2018-06-02T12:25:00.505Z,375
2018-06-02T12:26:09.151Z,360
2018-06-02T12:27:17.806Z,335
2018-06-02T12:28:26.796Z,305
2018-06-02T12:29:35.383Z,275
2018-06-02T12:30:44.031Z,255
2018-06-02T12:31:52.683Z,255
2018-06-02T12:33:01.335Z,275
2018-06-02T12:34:09.988Z,285
2018-06-02T12:35:18.903Z,295
2018-06-02T12:36:27.554Z,300
2018-06-02T12:37:36.471Z,305
2018-06-02T12:38:45.117Z,315
2018-06-02T12:39:53.772Z,340
2018-06-02T12:41:02.424Z,360
2018-06-02T12:42:11.079Z,385
2018-06-02T12:43:19.728Z,395
2018-06-02T12:44:28.381Z,405
2018-06-02T12:45:37.032Z,415
2018-06-02T12:46:45.687Z,420
2018-06-02T12:47:54.328Z,420
2018-06-02T12:49:03.254Z,410
2018-06-02T12:50:11.906Z,395
2018-06-02T12:51:20.561Z,395
2018-06-02T12:52:29.219Z,380
2018-06-02T12:53:37.868Z,375
2018-06-02T12:54:46.782Z,375
2018-06-02T12:55:55.434Z,380
2018-06-02T12:57:04.357Z,370
2018-06-02T12:58:13.004Z,345
2018-06-02T12:59:21.655Z,310
2018-06-02T13:00:30.305Z,290
2018-06-02T13:01:38.961Z,260
2018-06-02T13:02:47.877Z,240
2018-06-02T13:03:56.531Z,220
2018-06-02T13:05:05.183Z,210
2018-06-02T13:06:13.841Z,205
2018-06-02T13:07:22.494Z,200
2018-06-02T13:08:31.143Z,200
2018-06-02T13:09:39.791Z,210
2018-06-02T13:10:48.707Z,230
2018-06-02T13:11:57.637Z,255
2018-06-02T13:13:06.288Z,285
2018-06-02T13:14:14.945Z,310
2018-06-02T13:15:23.589Z,340
2018-06-02T13:16:32.251Z,350
2018-06-02T13:17:41.163Z,370
2018-06-02T13:18:49.819Z,385
2018-06-02T13:19:58.461Z,405
2018-06-02T13:21:07.149Z,415
2018-06-02T13:22:15.775Z,415
2018-06-02T13:23:24.428Z,405
2018-06-02T13:24:33.336Z,405
2018-06-02T13:25:41.993Z,390
2018-06-02T13:26:50.649Z,385
2018-06-02T13:27:59.303Z,380
2018-06-02T13:29:08.217Z,360
2018-06-02T13:30:16.859Z,325
2018-06-02T13:31:26.041Z,245
2018-06-02T13:32:34.689Z,190
2018-06-02T13:33:43.351Z,165
2018-06-02T13:34:51.993Z,140
2018-06-02T13:36:00.649Z,130
2018-06-02T13:37:09.295Z,125
2018-06-02T13:38:17.954Z,120
2018-06-02T13:39:26.598Z,120
2018-06-02T13:40:35.252Z,125
2018-06-02T13:41:43.904Z,125
2018-06-02T13:42:52.564Z,125
2018-06-02T13:44:01.214Z,120
2018-06-02T13:45:09.859Z,115
2018-06-02T13:46:18.778Z,115
2018-06-02T13:47:27.426Z,120
2018-06-02T13:48:36.354Z,125
2018-06-02T13:49:45.271Z,135
2018-06-02T13:50:54.199Z,145
2018-06-02T13:52:03.109Z,160
2018-06-02T13:53:11.766Z,180
2018-06-02T13:54:20.411Z,200
2018-06-02T13:55:29.065Z,220
2018-06-02T13:56:37.708Z,235
2018-06-02T13:57:46.371Z,260
2018-06-02T13:58:55.022Z,275
2018-06-02T14:00:03.943Z,295
2018-06-02T14:01:12.585Z,320
2018-06-02T14:02:21.238Z,315
2018-06-02T14:03:29.896Z,320
2018-06-02T14:04:38.544Z,295
2018-06-02T14:05:47.192Z,260
2018-06-02T14:06:55.849Z,225
2018-06-02T14:08:04.764Z,190
2018-06-02T14:09:13.416Z,175
2018-06-02T14:10:22.063Z,155
2018-06-02T14:11:30.978Z,135
2018-06-02T14:12:39.688Z,120
2018-06-02T14:13:48.284Z,115
2018-06-02T14:14:56.932Z,125
2018-06-02T14:16:05.587Z,130
2018-06-02T14:17:14.238Z,145
2018-06-02T14:18:22.892Z,160
2018-06-02T14:19:31.539Z,180
2018-06-02T14:20:40.190Z,200
2018-06-02T14:21:48.845Z,215
2018-06-02T14:22:57.500Z,225
2018-06-02T14:24:06.417Z,230
2018-06-02T14:25:15.333Z,235
2018-06-02T14:26:24.249Z,235
2018-06-02T14:27:32.918Z,240
2018-06-02T14:28:41.842Z,240
2018-06-02T14:29:50.746Z,240
2018-06-02T14:30:59.733Z,245
2018-06-02T14:32:08.383Z,250
2018-06-02T14:33:17.040Z,245
2018-06-02T14:34:25.685Z,240
2018-06-02T14:35:34.340Z,235
2018-06-02T14:36:42.990Z,235
2018-06-02T14:37:51.645Z,240
2018-06-02T14:39:00.567Z,235
2018-06-02T14:40:09.481Z,240
2018-06-02T14:41:18.129Z,250
2018-06-02T14:42:26.781Z,250
2018-06-02T14:43:35.476Z,250
2018-06-02T14:44:44.088Z,260
2018-06-02T14:45:52.743Z,265
2018-06-02T14:47:01.391Z,275
2018-06-02T14:48:10.311Z,280
2018-06-02T14:49:18.989Z,280
2018-06-02T14:50:27.617Z,275
2018-06-02T14:51:36.264Z,275
2018-06-02T14:52:44.919Z,285
2018-06-02T14:53:53.568Z,285
2018-06-02T14:55:02.574Z,290
2018-06-02T14:56:11.211Z,290
2018-06-02T14:57:19.863Z,295
2018-06-02T14:58:28.515Z,300
2018-06-02T14:59:37.172Z,310
2018-06-02T15:00:45.817Z,315
2018-06-02T15:01:54.467Z,320
2018-06-02T15:03:03.119Z,320
2018-06-02T15:04:11.766Z,325
2018-06-02T15:05:20.429Z,305
2018-06-02T15:06:29.071Z,295
2018-06-02T15:07:37.725Z,275
2018-06-02T15:08:46.641Z,270
2018-06-02T15:09:55.302Z,260
2018-06-02T15:11:03.942Z,250
2018-06-02T15:12:12.857Z,255
2018-06-02T15:13:21.771Z,280
2018-06-02T15:14:30.432Z,225
2018-06-02T15:15:39.092Z,200
2018-06-02T15:16:47.737Z,185
2018-06-02T15:17:56.735Z,185
2018-06-02T15:19:05.382Z,195
2018-06-02T15:20:14.047Z,175
2018-06-02T15:21:22.701Z,190
2018-06-02T15:22:31.354Z,220
2018-06-02T15:23:39.998Z,200
2018-06-02T15:24:48.702Z,185
2018-06-02T15:25:57.893Z,180
2018-06-02T15:27:06.806Z,175
2018-06-02T15:28:15.451Z,175
2018-06-02T15:29:24.112Z,175
2018-06-02T15:30:32.765Z,180
2018-06-02T15:31:41.678Z,185
2018-06-02T15:32:50.321Z,230
2018-06-02T15:33:58.976Z,250
2018-06-02T15:35:07.636Z,260
2018-06-02T15:36:16.291Z,260
2018-06-02T15:37:24.947Z,240
2018-06-02T15:38:33.585Z,290
2018-06-02T15:39:42.241Z,290
2018-06-02T15:40:50.889Z,260
2018-06-02T15:41:59.559Z,240
2018-06-02T15:43:08.460Z,220
2018-06-02T15:44:17.119Z,200
2018-06-02T15:45:25.765Z,200
2018-06-02T15:46:34.430Z,170
2018-06-02T15:47:43.066Z,170
2018-06-02T15:48:51.983Z,180
2018-06-02T15:50:00.903Z,150
2018-06-02T15:51:09.565Z,160
2018-06-02T15:52:18.213Z,140
2018-06-02T15:53:26.864Z,165
2018-06-02T15:54:35.510Z,135
2018-06-02T15:55:44.160Z,130
2018-06-02T15:56:52.822Z,125
2018-06-02T15:58:01.466Z,130
2018-06-02T15:59:10.398Z,130
2018-06-02T16:00:19.040Z,140
2018-06-02T16:01:27.687Z,165
2018-06-02T16:02:36.347Z,165
2018-06-02T16:03:44.993Z,165
2018-06-02T16:04:53.916Z,160
2018-06-02T16:06:02.557Z,160
2018-06-02T16:07:11.210Z,160
2018-06-02T16:08:19.858Z,160
2018-06-02T16:09:28.518Z,160
2018-06-02T16:10:37.168Z,160
2018-06-02T16:11:45.820Z,165